Terminal Aerodrome Forecast
Issued by NWS Northern Indiana

Home | Current Version | Previous Version | Graphics & Text | Print | Product List | Glossary On
Versions: 1 2 3 4 5 6 7 8 9 10 11 12 13 14 15 16
000
FTUS43 KIWX 251738
TAFFWA
TAF
KFWA 251738Z 2518/2618 17007KT P6SM OVC080
     FM252100 12009KT P6SM OVC070
     FM260300 10008KT 6SM SHRA BR OVC040
     FM260600 11007KT 4SM SHRA BR OVC020
     FM260900 13008KT 2SM SHRA BR OVC015=

USA.gov is the U.S. government's official web portal to all federal, state and local government web resources and services.